Time;durP1;ratioP1;P1;durP2;ratioP2;P2;SDS_P1;SDS_P2;PMS_P1;PMS_P2;Temp;Humidity;BMP_temperature;BMP_pressure;BME280_temperature;BME280_humidity;BME280_pressure;Samples;Min_cycle;Max_cycle;Signal;HPM_P1;HPM_P2
2021/03/16 00:01:55;;;;;;;12.53;4.20;;;9.90;99.90;;;;;;5054393;28;20295;-82
2021/03/16 00:04:21;;;;;;;16.13;4.90;;;9.90;99.90;;;;;;5051823;28;20220;-81
2021/03/16 00:06:48;;;;;;;13.53;4.80;;;9.90;99.90;;;;;;5036191;28;20211;-81
2021/03/16 00:09:14;;;;;;;14.83;4.77;;;9.90;99.90;;;;;;5053971;28;20230;-83
2021/03/16 00:11:41;;;;;;;13.73;3.80;;;9.90;99.90;;;;;;5053553;28;20745;-82
2021/03/16 00:14:07;;;;;;;14.50;4.60;;;9.80;99.90;;;;;;5054637;28;20680;-82
2021/03/16 00:16:34;;;;;;;13.17;4.37;;;9.80;99.90;;;;;;5053871;28;20357;-82
2021/03/16 00:19:01;;;;;;;10.00;4.17;;;9.80;99.90;;;;;;5054297;28;20560;-82
2021/03/16 00:21:27;;;;;;;11.03;4.47;;;9.80;99.90;;;;;;5053896;28;20280;-82
2021/03/16 00:23:54;;;;;;;10.57;4.20;;;9.80;99.90;;;;;;5054075;28;20652;-82
2021/03/16 00:26:20;;;;;;;13.47;4.70;;;9.80;99.90;;;;;;5049510;28;20942;-82
2021/03/16 00:28:47;;;;;;;14.30;4.53;;;9.70;99.90;;;;;;5054210;28;20241;-82
2021/03/16 00:31:13;;;;;;;12.17;4.90;;;9.70;99.90;;;;;;5054039;28;20241;-82
2021/03/16 00:33:40;;;;;;;10.73;4.57;;;9.70;99.90;;;;;;5054052;28;20203;-82
2021/03/16 00:36:08;;;;;;;13.20;5.20;;;9.70;99.90;;;;;;5053966;28;20204;-82
2021/03/16 00:38:34;;;;;;;12.20;4.07;;;9.70;99.90;;;;;;5053318;28;20235;-82
2021/03/16 00:41:01;;;;;;;8.63;4.13;;;9.70;99.90;;;;;;5053503;28;20243;-82
2021/03/16 00:43:28;;;;;;;10.90;4.40;;;9.70;99.90;;;;;;5044705;28;20207;-82
2021/03/16 00:45:54;;;;;;;15.63;4.80;;;9.70;99.90;;;;;;5033595;28;20230;-82
2021/03/16 00:48:21;;;;;;;10.47;4.80;;;9.70;99.90;;;;;;5033405;28;20243;-82
2021/03/16 00:50:48;;;;;;;12.60;4.53;;;9.70;99.90;;;;;;5033838;28;20270;-82
2021/03/16 00:53:15;;;;;;;11.70;4.80;;;9.70;99.90;;;;;;5033601;28;20680;-82
2021/03/16 00:55:41;;;;;;;13.13;5.00;;;9.70;99.90;;;;;;5044258;28;20234;-82
2021/03/16 00:58:08;;;;;;;12.97;4.97;;;9.70;99.90;;;;;;5038899;28;20228;-82
2021/03/16 01:00:34;;;;;;;15.17;5.10;;;9.70;99.90;;;;;;5037827;28;20220;-81
2021/03/16 01:03:01;;;;;;;12.03;4.70;;;9.70;99.90;;;;;;5053087;28;20227;-82
2021/03/16 01:05:27;;;;;;;15.23;5.30;;;9.60;99.90;;;;;;5052858;28;20255;-82
2021/03/16 01:07:54;;;;;;;14.23;5.23;;;9.60;99.90;;;;;;5050336;28;20239;-82
2021/03/16 01:10:23;;;;;;;15.90;5.87;;;9.60;99.90;;;;;;5052763;28;20687;-82
2021/03/16 01:12:50;;;;;;;16.23;5.70;;;9.60;99.90;;;;;;5053426;28;20204;-82
2021/03/16 01:15:17;;;;;;;13.07;5.63;;;9.60;99.90;;;;;;5052947;28;20563;-81
2021/03/16 01:17:44;;;;;;;15.93;5.30;;;9.60;99.90;;;;;;5052151;28;20259;-82
2021/03/16 01:20:14;;;;;;;13.13;5.60;;;9.60;99.90;;;;;;5053236;28;20271;-82
2021/03/16 01:22:40;;;;;;;14.93;6.07;;;9.60;99.90;;;;;;5052698;28;20249;-82
2021/03/16 01:25:09;;;;;;;15.97;6.17;;;9.60;99.90;;;;;;5052397;28;20238;-82
2021/03/16 01:27:37;;;;;;;17.47;5.47;;;9.60;99.90;;;;;;5053149;28;20238;-81
2021/03/16 01:30:04;;;;;;;15.27;5.73;;;9.50;99.90;;;;;;5049811;28;20231;-81
2021/03/16 01:32:31;;;;;;;15.80;6.33;;;9.50;99.90;;;;;;5052476;28;20253;-81
2021/03/16 01:34:58;;;;;;;14.80;6.23;;;9.50;99.90;;;;;;5052826;28;20242;-81
2021/03/16 01:37:24;;;;;;;13.07;5.97;;;9.50;99.90;;;;;;5053006;28;20281;-81
2021/03/16 01:39:51;;;;;;;15.17;5.73;;;9.50;99.90;;;;;;5052271;28;20766;-81
2021/03/16 01:42:17;;;;;;;15.60;5.83;;;9.50;99.90;;;;;;5052832;28;20234;-82
2021/03/16 01:44:45;;;;;;;14.27;5.77;;;9.50;99.90;;;;;;5050258;28;20261;-82
2021/03/16 01:47:12;;;;;;;13.60;7.23;;;9.50;99.90;;;;;;5047672;28;20231;-81
2021/03/16 01:49:39;;;;;;;16.47;6.37;;;9.50;99.90;;;;;;5052321;28;20698;-82
2021/03/16 01:52:06;;;;;;;15.73;6.20;;;9.50;99.90;;;;;;5052019;28;20290;-82
2021/03/16 01:54:33;;;;;;;16.60;5.87;;;9.50;99.90;;;;;;5052776;28;20241;-82
2021/03/16 01:57:03;;;;;;;14.60;6.03;;;9.50;99.90;;;;;;5052276;28;20227;-83
2021/03/16 01:59:30;;;;;;;15.33;6.00;;;9.50;99.90;;;;;;5052422;28;20729;-82
2021/03/16 02:01:58;;;;;;;16.20;6.77;;;9.40;99.90;;;;;;5050368;28;20815;-81
2021/03/16 02:04:24;;;;;;;12.33;6.33;;;9.40;99.90;;;;;;5051726;28;20669;-82
2021/03/16 02:06:55;;;;;;;15.83;6.07;;;9.40;99.90;;;;;;5051368;28;20238;-82
2021/03/16 02:09:29;;;;;;;14.93;6.23;;;9.40;99.90;;;;;;5052064;28;20266;-82
2021/03/16 02:12:02;;;;;;;15.43;6.23;;;9.40;99.90;;;;;;5051758;28;20225;-82
2021/03/16 02:14:32;;;;;;;14.63;6.60;;;9.50;99.90;;;;;;5052276;28;20227;-82
2021/03/16 02:17:05;;;;;;;14.73;6.50;;;9.50;99.90;;;;;;5050707;28;20243;-82
2021/03/16 02:19:54;;;;;;;14.70;7.17;;;9.50;99.90;;;;;;5052292;28;20235;-82
2021/03/16 02:22:23;;;;;;;19.30;7.37;;;9.40;99.90;;;;;;5050895;28;20366;-82
2021/03/16 02:25:06;;;;;;;15.03;7.10;;;9.40;99.90;;;;;;5052233;28;20262;-82
2021/03/16 02:27:46;;;;;;;15.80;7.60;;;9.50;99.90;;;;;;5051787;28;20290;-82
2021/03/16 02:30:16;;;;;;;15.90;7.20;;;9.40;99.90;;;;;;5051753;28;20230;-82
2021/03/16 02:32:44;;;;;;;16.63;7.27;;;9.50;99.90;;;;;;5049393;28;20281;-82
2021/03/16 02:35:12;;;;;;;14.50;6.50;;;9.40;99.90;;;;;;5046811;28;20704;-82
2021/03/16 02:37:41;;;;;;;14.67;7.03;;;9.40;99.90;;;;;;5050706;28;20272;-82
2021/03/16 02:40:09;;;;;;;13.33;6.83;;;9.40;99.90;;;;;;5051825;28;20195;-81
2021/03/16 02:42:38;;;;;;;15.87;7.70;;;9.30;99.90;;;;;;5050006;28;20230;-82
2021/03/16 02:45:09;;;;;;;12.83;7.37;;;9.20;99.90;;;;;;5051704;28;20301;-82
2021/03/16 02:47:38;;;;;;;16.63;6.90;;;9.20;99.90;;;;;;5051398;28;20207;-82
2021/03/16 02:50:06;;;;;;;16.63;6.90;;;9.30;99.90;;;;;;5051291;28;20205;-82
2021/03/16 02:52:34;;;;;;;13.80;6.97;;;9.30;99.90;;;;;;5051430;28;20276;-82
2021/03/16 02:55:01;;;;;;;17.07;7.03;;;9.30;99.90;;;;;;5051499;28;20240;-82
2021/03/16 02:57:29;;;;;;;16.10;7.40;;;9.30;99.90;;;;;;5034548;28;20231;-82
2021/03/16 02:59:59;;;;;;;22.67;7.37;;;9.30;99.90;;;;;;5055264;28;20231;-82
2021/03/16 03:02:27;;;;;;;17.50;8.00;;;9.30;99.90;;;;;;5055207;28;20764;-82
2021/03/16 03:04:55;;;;;;;15.97;7.50;;;9.30;99.90;;;;;;5051942;28;20273;-82
2021/03/16 03:07:22;;;;;;;16.73;7.33;;;9.20;99.90;;;;;;5054749;28;20763;-82
2021/03/16 03:09:49;;;;;;;15.10;7.63;;;9.30;99.90;;;;;;5054466;28;20241;-82
2021/03/16 03:12:16;;;;;;;16.97;7.80;;;9.20;99.90;;;;;;5055706;28;20243;-82
2021/03/16 03:14:43;;;;;;;19.30;7.97;;;9.20;99.90;;;;;;5055283;28;20683;-82
2021/03/16 03:17:11;;;;;;;17.23;7.70;;;9.20;99.90;;;;;;5054703;28;20250;-82
2021/03/16 03:19:37;;;;;;;13.33;6.77;;;9.20;99.90;;;;;;5055089;28;20226;-82
2021/03/16 03:22:11;;;;;;;13.20;7.13;;;9.20;99.90;;;;;;5055135;28;20711;-82
2021/03/16 03:24:46;;;;;;;20.00;7.27;;;9.20;99.90;;;;;;5045624;28;20251;-82
2021/03/16 03:27:20;;;;;;;17.13;7.80;;;9.10;99.90;;;;;;5055662;28;20234;-82
2021/03/16 03:29:49;;;;;;;15.67;7.30;;;9.00;99.90;;;;;;5037525;28;20203;-82
2021/03/16 03:32:20;;;;;;;17.03;7.07;;;9.00;99.90;;;;;;5042534;28;20769;-82
2021/03/16 03:34:47;;;;;;;19.63;8.00;;;8.90;99.90;;;;;;5055004;28;20223;-82
2021/03/16 03:37:17;;;;;;;15.03;7.23;;;8.80;99.90;;;;;;5035330;28;20254;-82
2021/03/16 03:39:44;;;;;;;16.90;7.67;;;8.80;99.90;;;;;;5035052;28;20634;-82
2021/03/16 03:42:11;;;;;;;16.07;7.17;;;8.80;99.90;;;;;;5034971;28;20242;-82
2021/03/16 03:44:40;;;;;;;18.20;7.80;;;8.80;99.90;;;;;;5034640;28;20267;-82
2021/03/16 03:47:09;;;;;;;15.00;7.50;;;8.80;99.90;;;;;;5034899;28;20638;-82
2021/03/16 03:49:37;;;;;;;16.30;7.60;;;8.90;99.90;;;;;;5050388;28;20202;-82
2021/03/16 03:52:04;;;;;;;17.93;7.80;;;8.80;99.90;;;;;;5054614;28;20246;-82
2021/03/16 03:54:34;;;;;;;14.50;7.47;;;8.80;99.90;;;;;;5054552;28;20697;-82
2021/03/16 03:57:03;;;;;;;15.13;7.30;;;8.80;99.90;;;;;;5036498;28;20242;-82
2021/03/16 03:59:30;;;;;;;14.77;7.27;;;8.80;99.90;;;;;;5054820;28;20227;-82
2021/03/16 04:01:57;;;;;;;15.97;6.87;;;8.80;99.90;;;;;;5054481;28;20236;-82
2021/03/16 04:04:25;;;;;;;13.90;7.20;;;8.80;99.90;;;;;;5053564;28;20729;-82
2021/03/16 04:06:52;;;;;;;18.27;7.83;;;8.80;99.90;;;;;;5046886;28;20227;-82
2021/03/16 04:09:18;;;;;;;16.23;7.77;;;8.80;99.90;;;;;;5053338;28;20202;-82
2021/03/16 04:11:46;;;;;;;15.03;7.63;;;8.80;99.90;;;;;;5053621;28;20241;-81
2021/03/16 04:14:12;;;;;;;18.07;7.90;;;8.80;99.90;;;;;;5034092;28;20278;-82
2021/03/16 04:16:40;;;;;;;20.77;8.23;;;8.80;99.90;;;;;;5046627;28;20241;-81
2021/03/16 04:19:07;;;;;;;17.73;7.77;;;8.80;99.90;;;;;;5053326;28;20238;-82
2021/03/16 04:21:33;;;;;;;17.17;7.83;;;8.80;99.90;;;;;;5034382;28;20266;-82
2021/03/16 04:24:01;;;;;;;13.47;7.50;;;8.80;99.90;;;;;;5053413;28;20211;-82
2021/03/16 04:26:27;;;;;;;20.67;7.93;;;8.80;99.90;;;;;;5053724;28;20207;-82
2021/03/16 04:28:54;;;;;;;18.97;8.00;;;8.80;99.90;;;;;;5054169;28;20238;-82
2021/03/16 04:31:21;;;;;;;14.33;7.40;;;8.70;99.90;;;;;;5040717;28;20235;-82
2021/03/16 04:33:47;;;;;;;17.53;7.40;;;8.70;99.90;;;;;;5040041;28;20564;-82
2021/03/16 04:36:13;;;;;;;20.30;7.50;;;8.70;99.90;;;;;;5047907;28;20243;-81
2021/03/16 04:38:40;;;;;;;19.40;8.80;;;8.70;99.90;;;;;;5039951;28;20679;-82
2021/03/16 04:41:06;;;;;;;16.70;8.03;;;8.70;99.90;;;;;;5052841;28;20241;-81
2021/03/16 04:43:33;;;;;;;16.27;7.90;;;8.70;99.90;;;;;;5052987;28;20812;-82
2021/03/16 04:46:00;;;;;;;18.90;8.20;;;8.70;99.90;;;;;;5052923;28;20247;-81
2021/03/16 04:48:26;;;;;;;15.57;7.90;;;8.80;99.90;;;;;;5053555;28;20234;-82
2021/03/16 04:50:53;;;;;;;14.87;7.73;;;8.80;99.90;;;;;;5053469;28;20276;-82
2021/03/16 04:53:20;;;;;;;17.10;8.03;;;8.80;99.90;;;;;;5053916;28;20238;-82
2021/03/16 04:55:46;;;;;;;15.50;7.93;;;8.80;99.90;;;;;;5053528;28;20709;-81
2021/03/16 04:58:12;;;;;;;17.23;7.90;;;8.90;99.90;;;;;;5053429;28;20231;-82
2021/03/16 05:00:39;;;;;;;14.33;7.90;;;8.90;99.90;;;;;;5052812;28;20936;-82
2021/03/16 05:03:06;;;;;;;17.03;7.93;;;8.80;99.90;;;;;;5053405;28;20245;-82
2021/03/16 05:05:33;;;;;;;16.90;7.87;;;8.80;99.90;;;;;;5051758;28;20270;-82
2021/03/16 05:07:59;;;;;;;16.90;8.17;;;8.80;99.90;;;;;;5053058;28;20259;-81
2021/03/16 05:10:26;;;;;;;17.10;8.03;;;8.70;99.90;;;;;;5053323;28;20231;-82
2021/03/16 05:12:52;;;;;;;16.20;8.70;;;8.80;99.90;;;;;;5052619;28;20237;-82
2021/03/16 05:15:18;;;;;;;19.27;8.70;;;8.70;99.90;;;;;;5051676;28;20237;-82
2021/03/16 05:17:45;;;;;;;17.47;8.10;;;8.70;99.90;;;;;;5052194;28;20258;-81
2021/03/16 05:20:13;;;;;;;16.73;8.47;;;8.80;99.90;;;;;;5052170;28;20255;-82
2021/03/16 05:22:40;;;;;;;17.10;8.43;;;8.80;99.90;;;;;;5052213;28;20199;-82
2021/03/16 05:25:07;;;;;;;16.57;9.40;;;8.70;99.90;;;;;;5046728;28;20258;-82
2021/03/16 05:27:34;;;;;;;19.30;8.23;;;8.70;99.90;;;;;;5033402;28;20236;-81
2021/03/16 05:30:00;;;;;;;18.80;8.80;;;8.70;99.90;;;;;;5033100;28;20235;-82
2021/03/16 05:32:27;;;;;;;20.50;9.30;;;8.80;99.90;;;;;;5032834;28;20259;-82
2021/03/16 05:34:53;;;;;;;18.30;8.30;;;8.80;99.90;;;;;;5033060;28;20202;-82
2021/03/16 05:37:21;;;;;;;22.60;8.50;;;8.80;99.90;;;;;;5031829;28;20701;-82
2021/03/16 05:39:47;;;;;;;18.23;8.63;;;8.80;99.90;;;;;;5032946;28;20231;-82
2021/03/16 05:42:17;;;;;;;21.77;9.23;;;8.80;99.90;;;;;;5033161;28;20246;-82
2021/03/16 05:44:45;;;;;;;17.63;8.90;;;8.80;99.90;;;;;;5014973;28;20266;-82
2021/03/16 05:47:12;;;;;;;21.37;9.87;;;8.80;99.90;;;;;;5046046;28;20198;-82
2021/03/16 05:49:41;;;;;;;14.97;8.63;;;8.80;99.90;;;;;;5052441;28;20235;-81
2021/03/16 05:52:10;;;;;;;20.27;9.43;;;8.80;99.90;;;;;;5052958;28;20238;-81
2021/03/16 05:54:39;;;;;;;17.40;8.53;;;8.80;99.90;;;;;;5052121;28;20248;-81
2021/03/16 05:57:08;;;;;;;20.10;8.80;;;8.80;99.90;;;;;;5052260;28;20237;-81
2021/03/16 05:59:35;;;;;;;20.30;10.07;;;8.70;99.90;;;;;;5052499;28;20205;-81
2021/03/16 06:02:02;;;;;;;17.47;8.97;;;8.70;99.90;;;;;;5052521;28;20257;-82
2021/03/16 06:04:28;;;;;;;17.90;8.93;;;8.70;99.90;;;;;;5051383;28;20256;-81
2021/03/16 06:06:57;;;;;;;19.63;9.20;;;8.80;99.90;;;;;;5051607;28;20245;-81
2021/03/16 06:09:23;;;;;;;17.03;9.80;;;8.80;99.90;;;;;;5051440;28;20216;-81
2021/03/16 06:11:51;;;;;;;22.13;9.77;;;8.70;99.90;;;;;;5051876;28;20748;-81
2021/03/16 06:14:28;;;;;;;16.77;9.33;;;8.70;99.90;;;;;;5051337;28;20638;-80
2021/03/16 06:16:55;;;;;;;19.20;9.37;;;8.70;99.90;;;;;;5035466;28;20249;-81
2021/03/16 06:19:27;;;;;;;19.40;8.87;;;8.70;99.90;;;;;;5040807;28;20238;-82
2021/03/16 06:21:58;;;;;;;19.70;9.23;;;8.80;99.90;;;;;;5040010;28;20295;-81
2021/03/16 06:24:25;;;;;;;18.63;9.23;;;8.80;99.90;;;;;;5052099;28;20905;-81
2021/03/16 06:26:53;;;;;;;20.73;9.23;;;8.80;99.90;;;;;;5051592;28;20355;-81
2021/03/16 06:29:20;;;;;;;19.07;9.83;;;8.70;99.90;;;;;;5051509;28;20244;-82
2021/03/16 06:31:46;;;;;;;20.07;9.73;;;8.70;99.90;;;;;;5050237;28;20255;-82
2021/03/16 06:34:23;;;;;;;20.43;9.77;;;8.70;99.90;;;;;;5050977;28;20239;-82
2021/03/16 06:36:57;;;;;;;20.87;9.17;;;8.80;99.90;;;;;;5033992;28;20230;-82
2021/03/16 06:39:25;;;;;;;19.60;9.77;;;8.80;99.90;;;;;;5052259;28;20313;-81
2021/03/16 06:41:53;;;;;;;19.73;9.93;;;8.80;99.90;;;;;;5040353;28;20247;-82
2021/03/16 06:44:20;;;;;;;20.80;9.77;;;8.80;99.90;;;;;;5045685;28;20266;-80
2021/03/16 06:46:53;;;;;;;22.53;10.43;;;8.90;99.90;;;;;;5049013;28;20223;-81
2021/03/16 06:49:21;;;;;;;21.13;9.73;;;8.90;99.90;;;;;;5044900;28;20290;-81
2021/03/16 06:51:49;;;;;;;18.03;9.50;;;8.90;99.90;;;;;;5037788;28;20228;-80
2021/03/16 06:54:17;;;;;;;19.40;9.87;;;9.00;99.90;;;;;;5046229;28;20242;-80
2021/03/16 06:56:52;;;;;;;18.27;9.67;;;9.00;99.90;;;;;;5039457;28;20218;-80
2021/03/16 06:59:23;;;;;;;19.37;9.80;;;9.00;99.90;;;;;;5039498;28;20204;-80
2021/03/16 07:01:50;;;;;;;19.53;9.87;;;9.00;99.90;;;;;;5038416;28;20231;-80
2021/03/16 07:04:18;;;;;;;20.13;9.57;;;9.10;99.90;;;;;;5046676;28;20237;-80
2021/03/16 07:06:45;;;;;;;19.23;9.93;;;9.20;99.90;;;;;;5036498;28;20601;-80
2021/03/16 07:09:14;;;;;;;18.60;10.03;;;9.30;99.90;;;;;;5044036;28;20204;-79
2021/03/16 07:11:45;;;;;;;20.47;9.30;;;9.30;99.90;;;;;;5042127;28;20215;-78
2021/03/16 07:14:14;;;;;;;17.13;9.50;;;9.30;99.90;;;;;;5043982;28;20231;-79
2021/03/16 07:16:42;;;;;;;16.77;9.47;;;9.30;99.90;;;;;;5048261;28;20241;-79
2021/03/16 07:19:09;;;;;;;20.83;10.10;;;9.30;99.90;;;;;;5041595;28;20200;-79
2021/03/16 07:21:38;;;;;;;21.40;10.00;;;9.30;99.90;;;;;;5046781;28;20276;-79
2021/03/16 07:24:09;;;;;;;15.93;9.63;;;9.40;99.90;;;;;;5042451;28;20200;-78
2021/03/16 07:26:36;;;;;;;19.03;9.53;;;9.60;99.90;;;;;;5038325;28;20288;-79
2021/03/16 07:29:04;;;;;;;16.00;9.63;;;9.70;99.90;;;;;;5045588;28;20675;-78
2021/03/16 07:31:34;;;;;;;17.53;9.33;;;9.80;99.90;;;;;;5036087;28;20622;-78
2021/03/16 07:34:04;;;;;;;18.07;9.77;;;9.80;99.90;;;;;;5038274;28;20772;-78
2021/03/16 07:36:31;;;;;;;15.10;8.70;;;10.00;99.90;;;;;;5046719;28;20206;-78
2021/03/16 07:38:58;;;;;;;19.00;8.77;;;10.00;99.90;;;;;;5037943;28;20582;-78
2021/03/16 07:41:25;;;;;;;15.47;8.70;;;10.10;99.90;;;;;;5039203;28;20598;-79
2021/03/16 07:44:02;;;;;;;15.77;8.47;;;10.20;99.90;;;;;;5045251;28;20792;-79
2021/03/16 07:46:44;;;;;;;15.57;8.00;;;10.20;99.90;;;;;;5047978;28;20317;-78
2021/03/16 07:49:13;;;;;;;14.87;7.40;;;10.30;99.90;;;;;;5043362;28;20234;-79
2021/03/16 07:51:42;;;;;;;19.23;8.43;;;10.20;99.90;;;;;;5043006;28;20252;-78
2021/03/16 07:54:09;;;;;;;15.90;8.27;;;10.30;99.90;;;;;;5049522;28;20234;-79
2021/03/16 07:56:37;;;;;;;13.87;8.10;;;10.40;99.90;;;;;;5047648;28;20235;-80
2021/03/16 07:59:05;;;;;;;11.20;6.93;;;10.50;99.90;;;;;;5049353;28;20220;-79
2021/03/16 08:01:32;;;;;;;12.87;7.40;;;10.60;99.90;;;;;;5048934;28;20281;-79
2021/03/16 08:04:07;;;;;;;14.77;7.30;;;10.50;99.90;;;;;;5042365;28;20635;-78
2021/03/16 08:06:36;;;;;;;14.87;7.53;;;10.50;99.90;;;;;;5040260;28;20671;-78
2021/03/16 08:09:03;;;;;;;12.50;7.23;;;10.50;99.90;;;;;;5041158;28;20206;-78
2021/03/16 08:11:38;;;;;;;13.47;6.97;;;10.50;99.90;;;;;;5044053;28;20227;-78
2021/03/16 08:14:08;;;;;;;12.83;7.27;;;10.50;99.90;;;;;;5043033;28;20231;-78
2021/03/16 08:16:37;;;;;;;10.13;7.00;;;10.60;99.90;;;;;;5042297;28;20227;-78
2021/03/16 08:19:12;;;;;;;10.43;6.43;;;10.60;99.90;;;;;;5048566;28;20248;-78
2021/03/16 08:21:40;;;;;;;11.90;6.33;;;10.70;99.90;;;;;;5047055;28;20253;-78
2021/03/16 08:24:08;;;;;;;17.37;6.93;;;10.60;99.90;;;;;;5044202;28;20235;-78
2021/03/16 08:26:43;;;;;;;11.43;6.83;;;10.80;99.90;;;;;;5045393;28;20301;-78
2021/03/16 08:29:10;;;;;;;12.43;6.70;;;11.10;99.90;;;;;;5047330;28;20200;-78
2021/03/16 08:31:37;;;;;;;10.73;6.37;;;11.40;99.90;;;;;;5051817;28;20551;-78
2021/03/16 08:34:06;;;;;;;9.40;6.23;;;11.50;99.90;;;;;;5047423;28;20216;-78
2021/03/16 08:36:39;;;;;;;10.10;5.93;;;11.50;99.90;;;;;;5040548;28;20250;-78
2021/03/16 08:39:06;;;;;;;10.03;5.37;;;11.40;99.90;;;;;;5051151;28;20204;-78
2021/03/16 08:41:33;;;;;;;10.27;5.57;;;11.30;99.90;;;;;;5050502;28;20213;-78
2021/03/16 08:43:59;;;;;;;9.70;6.10;;;11.20;99.90;;;;;;5049746;28;20196;-78
2021/03/16 08:46:31;;;;;;;11.00;5.70;;;11.20;99.90;;;;;;5041569;28;20216;-79
2021/03/16 08:48:58;;;;;;;8.73;5.17;;;11.20;99.90;;;;;;5045183;28;20616;-78
2021/03/16 08:51:26;;;;;;;9.40;5.30;;;11.10;99.90;;;;;;5053701;28;20243;-78
2021/03/16 08:53:53;;;;;;;8.67;5.67;;;11.00;99.90;;;;;;5023336;28;20258;-78
2021/03/16 08:56:21;;;;;;;8.03;5.33;;;11.00;99.90;;;;;;5047099;28;20672;-77
2021/03/16 08:58:48;;;;;;;10.23;5.80;;;11.10;99.90;;;;;;5051057;28;20211;-80
2021/03/16 09:01:25;;;;;;;8.73;5.20;;;11.10;99.90;;;;;;5052267;28;20246;-79
2021/03/16 09:03:52;;;;;;;8.73;5.37;;;11.40;99.90;;;;;;5055362;28;20241;-82
2021/03/16 09:06:20;;;;;;;9.20;5.43;;;11.60;99.90;;;;;;5052660;28;20238;-80
2021/03/16 09:08:50;;;;;;;10.03;5.77;;;11.60;99.90;;;;;;5050988;28;20230;-80
2021/03/16 09:11:34;;;;;;;7.77;5.17;;;11.40;99.90;;;;;;5048284;28;20203;-79
2021/03/16 09:14:11;;;;;;;8.13;5.20;;;11.60;99.90;;;;;;5045340;28;20667;-80
2021/03/16 09:16:43;;;;;;;9.27;6.20;;;11.90;99.90;;;;;;5051324;28;20204;-81
2021/03/16 09:19:11;;;;;;;10.03;5.87;;;12.30;99.90;;;;;;5048785;28;20200;-81
2021/03/16 09:21:49;;;;;;;7.53;5.20;;;12.70;99.90;;;;;;5047831;28;20759;-79
2021/03/16 09:24:19;;;;;;;7.40;4.90;;;13.20;99.90;;;;;;5035618;28;20203;-82
2021/03/16 09:26:52;;;;;;;7.47;5.20;;;13.50;99.90;;;;;;5054261;28;20243;-82
2021/03/16 09:29:19;;;;;;;8.20;5.40;;;13.50;99.90;;;;;;5047368;28;20221;-80
2021/03/16 09:31:45;;;;;;;9.70;5.80;;;13.80;99.90;;;;;;5051013;28;20231;-82
2021/03/16 09:34:13;;;;;;;6.93;4.70;;;13.50;99.90;;;;;;5051512;28;20234;-83
2021/03/16 09:36:39;;;;;;;7.60;4.47;;;13.20;99.90;;;;;;5041780;28;20620;-84
2021/03/16 09:39:06;;;;;;;6.17;4.23;;;12.90;99.90;;;;;;5045673;28;20200;-83
2021/03/16 09:41:32;;;;;;;9.40;4.50;;;12.90;99.90;;;;;;5044329;28;20235;-85
2021/03/16 09:44:00;;;;;;;5.60;4.27;;;13.10;99.90;;;;;;5049572;28;20590;-85
2021/03/16 09:46:28;;;;;;;6.80;4.40;;;13.00;99.90;;;;;;5048761;28;20255;-85
2021/03/16 09:48:55;;;;;;;6.53;5.00;;;13.30;99.90;;;;;;5047506;28;20228;-85
2021/03/16 09:51:24;;;;;;;5.50;4.30;;;14.00;99.90;;;;;;5034817;28;20295;-83
2021/03/16 09:53:52;;;;;;;8.03;4.90;;;15.80;99.90;;;;;;5040308;28;20193;-84
2021/03/16 09:56:25;;;;;;;6.97;4.87;;;16.10;99.90;;;;;;5037851;28;20281;-84
2021/03/16 09:58:53;;;;;;;6.80;4.57;;;15.30;99.90;;;;;;5042664;28;20196;-85
2021/03/16 10:01:26;;;;;;;7.07;4.50;;;14.70;99.90;;;;;;5039230;28;20375;-84
2021/03/16 10:03:57;;;;;;;5.83;4.03;;;14.30;99.90;;;;;;5037099;28;20239;-85
2021/03/16 10:06:34;;;;;;;7.47;4.33;;;13.90;99.90;;;;;;5028113;28;20227;-85
2021/03/16 10:09:01;;;;;;;6.23;4.40;;;13.70;99.90;;;;;;5016651;28;20200;-85
2021/03/16 10:11:32;;;;;;;7.67;4.40;;;13.60;99.90;;;;;;5045392;28;20223;-85
2021/03/16 10:13:59;;;;;;;5.23;3.97;;;13.80;99.90;;;;;;5049705;28;20227;-85
2021/03/16 10:16:32;;;;;;;6.37;3.70;;;14.20;99.90;;;;;;5037136;28;20188;-84
2021/03/16 10:18:58;;;;;;;5.80;3.57;;;14.20;99.90;;;;;;5040545;28;20224;-83
2021/03/16 10:21:33;;;;;;;5.00;3.73;;;14.30;99.90;;;;;;5040578;28;20246;-84
2021/03/16 10:24:01;;;;;;;5.40;3.77;;;14.00;99.90;;;;;;5040109;28;20226;-86
2021/03/16 10:26:27;;;;;;;6.60;3.90;;;14.00;99.90;;;;;;5044943;28;20228;-84
2021/03/16 10:28:54;;;;;;;5.13;3.80;;;14.10;99.90;;;;;;5039674;28;20945;-84
2021/03/16 10:31:23;;;;;;;6.40;3.83;;;14.50;99.90;;;;;;5042173;28;20201;-85
2021/03/16 10:33:52;;;;;;;4.60;3.53;;;14.60;99.90;;;;;;5044543;28;20204;-85
2021/03/16 10:36:20;;;;;;;4.80;3.37;;;14.40;99.90;;;;;;5026426;28;20204;-85
2021/03/16 10:38:48;;;;;;;5.17;3.53;;;14.00;99.90;;;;;;5037211;28;20204;-84
2021/03/16 10:41:15;;;;;;;3.90;3.30;;;13.70;99.90;;;;;;5042572;28;20206;-85
2021/03/16 10:43:42;;;;;;;3.30;2.70;;;13.90;99.90;;;;;;5046798;28;20587;-84
2021/03/16 10:46:09;;;;;;;5.43;2.50;;;13.80;99.90;;;;;;5041053;28;20694;-85
2021/03/16 10:48:35;;;;;;;3.20;2.40;;;13.90;99.90;;;;;;5031310;28;20207;-85
2021/03/16 10:51:03;;;;;;;3.13;2.23;;;13.50;99.90;;;;;;5041755;28;20204;-87
2021/03/16 10:53:30;;;;;;;3.57;2.30;;;13.70;99.90;;;;;;5043029;28;20199;-82
2021/03/16 10:55:56;;;;;;;3.70;2.60;;;13.60;99.90;;;;;;5050894;28;20196;-83
2021/03/16 10:58:23;;;;;;;3.77;2.70;;;13.40;99.90;;;;;;5041096;28;20629;-86
2021/03/16 11:00:50;;;;;;;3.43;2.60;;;13.20;99.90;;;;;;5045074;28;20239;-85
2021/03/16 11:03:16;;;;;;;6.47;3.20;;;13.60;99.90;;;;;;5048038;28;20230;-87
2021/03/16 11:05:43;;;;;;;3.63;2.93;;;13.80;99.90;;;;;;5044750;28;20240;-86
2021/03/16 11:08:10;;;;;;;4.00;2.60;;;14.20;99.90;;;;;;5042602;28;20240;-86
2021/03/16 11:10:37;;;;;;;5.63;3.53;;;14.40;99.90;;;;;;5038863;28;20271;-85
2021/03/16 11:13:04;;;;;;;5.53;3.60;;;14.60;99.90;;;;;;5048216;28;20231;-85
2021/03/16 11:15:30;;;;;;;3.70;2.97;;;14.60;99.90;;;;;;5025952;28;20216;-85
2021/03/16 11:17:56;;;;;;;5.03;3.60;;;14.70;99.90;;;;;;5049675;28;20247;-85
2021/03/16 11:20:24;;;;;;;4.57;3.20;;;15.00;99.90;;;;;;5045860;28;20322;-84
2021/03/16 11:22:50;;;;;;;4.20;3.40;;;14.80;99.90;;;;;;5051036;28;20195;-85
2021/03/16 11:25:19;;;;;;;4.10;2.97;;;14.50;99.90;;;;;;5054154;28;20662;-86
2021/03/16 11:27:45;;;;;;;3.60;3.10;;;14.20;99.90;;;;;;5051155;28;20317;-84
2021/03/16 11:30:13;;;;;;;3.90;3.20;;;14.10;99.90;;;;;;5046436;28;20725;-86
2021/03/16 11:32:40;;;;;;;3.60;3.13;;;14.00;99.90;;;;;;5038092;28;20208;-85
2021/03/16 11:35:08;;;;;;;4.57;3.27;;;13.90;99.90;;;;;;5064119;28;20200;-85
2021/03/16 11:37:34;;;;;;;5.60;3.93;;;13.70;99.90;;;;;;5045728;28;20243;-85
2021/03/16 11:40:01;;;;;;;6.17;4.60;;;13.70;99.90;;;;;;5044521;28;20207;-84
2021/03/16 11:42:28;;;;;;;5.93;4.27;;;13.70;99.90;;;;;;5047778;28;20583;-84
2021/03/16 11:44:54;;;;;;;5.80;3.97;;;13.70;99.90;;;;;;5053540;28;20731;-85
2021/03/16 11:47:22;;;;;;;5.17;4.47;;;13.80;99.90;;;;;;5057366;28;20228;-85
2021/03/16 11:49:48;;;;;;;5.90;4.37;;;14.00;99.90;;;;;;5043390;28;20200;-84
2021/03/16 11:52:15;;;;;;;5.63;4.17;;;14.60;99.90;;;;;;5044091;28;20293;-84
2021/03/16 11:54:43;;;;;;;4.63;3.90;;;15.00;99.90;;;;;;5051825;28;20567;-84
2021/03/16 11:57:10;;;;;;;7.27;4.43;;;14.50;99.90;;;;;;5046771;28;21075;-84
2021/03/16 11:59:38;;;;;;;4.60;3.90;;;14.10;99.90;;;;;;5045963;28;20204;-84
2021/03/16 12:02:05;;;;;;;6.47;4.60;;;13.70;99.90;;;;;;5037984;28;20202;-84
2021/03/16 12:04:33;;;;;;;5.10;4.10;;;13.50;99.90;;;;;;5050967;28;20235;-84
2021/03/16 12:06:59;;;;;;;6.10;4.77;;;13.40;99.90;;;;;;5046578;28;20295;-84
2021/03/16 12:09:26;;;;;;;5.80;4.33;;;13.50;99.90;;;;;;5056495;28;20250;-83
2021/03/16 12:11:52;;;;;;;6.87;4.90;;;13.70;99.90;;;;;;5042674;28;20942;-83
2021/03/16 12:14:19;;;;;;;6.00;5.10;;;14.00;99.90;;;;;;5047491;28;20200;-84
2021/03/16 12:16:46;;;;;;;6.67;5.00;;;14.40;99.90;;;;;;5051840;28;20225;-83
2021/03/16 12:19:12;;;;;;;7.67;5.10;;;14.30;99.90;;;;;;5039565;28;20686;-83
2021/03/16 12:21:39;;;;;;;6.43;4.97;;;14.30;99.90;;;;;;5035285;28;20255;-83
2021/03/16 12:24:06;;;;;;;6.77;5.23;;;15.00;99.90;;;;;;5033891;28;20668;-83
2021/03/16 12:26:32;;;;;;;6.70;5.10;;;16.50;99.90;;;;;;5034474;28;20259;-85
2021/03/16 12:28:59;;;;;;;6.73;5.40;;;17.00;99.90;;;;;;5038829;28;20266;-85
2021/03/16 12:31:25;;;;;;;6.83;5.33;;;16.70;99.90;;;;;;5053567;28;20301;-85
2021/03/16 12:33:52;;;;;;;7.50;5.17;;;15.80;99.90;;;;;;5054039;28;20662;-86
2021/03/16 12:36:19;;;;;;;5.90;4.87;;;15.10;99.90;;;;;;5031564;28;20680;-84
2021/03/16 12:38:45;;;;;;;7.07;5.23;;;15.20;99.90;;;;;;5041213;28;20231;-85
2021/03/16 12:41:12;;;;;;;7.23;4.43;;;15.00;99.90;;;;;;5048311;28;20274;-85
2021/03/16 12:43:38;;;;;;;6.60;4.90;;;15.10;99.90;;;;;;5045295;28;20230;-84
2021/03/16 12:46:05;;;;;;;6.97;4.93;;;14.80;99.90;;;;;;5043869;28;20681;-84
2021/03/16 12:48:31;;;;;;;6.10;4.63;;;14.50;99.90;;;;;;5046692;28;20236;-84
2021/03/16 12:50:59;;;;;;;6.17;4.40;;;14.20;99.90;;;;;;5034443;28;20231;-85